Time;durP1;ratioP1;P1;durP2;ratioP2;P2;SDS_P1;SDS_P2;PMS_P1;PMS_P2;Temp;Humidity;BMP_temperature;BMP_pressure;BME280_temperature;BME280_humidity;BME280_pressure;Samples;Min_cycle;Max_cycle;Signal;HPM_P1;HPM_P2
2021/05/12 00:01:03;;;;;;;12.70;7.78;;;14.80;86.50;;;;;;5049530;28;20112;-74
2021/05/12 00:03:29;;;;;;;16.70;10.73;;;14.80;86.60;;;;;;5051606;28;20044;-75
2021/05/12 00:05:57;;;;;;;18.08;9.98;;;14.80;87.20;;;;;;5050937;28;20373;-75
2021/05/12 00:08:24;;;;;;;14.10;8.63;;;14.80;86.60;;;;;;5050128;28;20017;-74
2021/05/12 00:10:50;;;;;;;19.08;10.02;;;14.70;86.60;;;;;;5049439;28;20485;-74
2021/05/12 00:13:15;;;;;;;19.15;10.57;;;14.70;86.70;;;;;;5051494;28;20025;-74
2021/05/12 00:15:41;;;;;;;13.95;8.80;;;14.70;86.70;;;;;;5051455;28;20025;-75
2021/05/12 00:18:12;;;;;;;17.48;9.23;;;14.70;86.80;;;;;;5050943;28;20033;-74
2021/05/12 00:20:39;;;;;;;14.93;9.30;;;14.70;86.70;;;;;;5066967;28;20346;-74
2021/05/12 00:23:09;;;;;;;15.52;8.70;;;14.70;86.70;;;;;;5050720;28;20029;-74
2021/05/12 00:25:35;;;;;;;13.60;8.50;;;14.70;86.70;;;;;;5051190;28;20025;-75
2021/05/12 00:28:01;;;;;;;15.85;10.45;;;14.70;86.90;;;;;;5049288;28;20079;-76
2021/05/12 00:30:27;;;;;;;13.30;9.73;;;14.60;86.90;;;;;;5051219;28;20086;-73
2021/05/12 00:32:53;;;;;;;18.33;10.70;;;14.60;87.00;;;;;;5051783;28;20096;-75
2021/05/12 00:35:19;;;;;;;16.98;9.52;;;14.50;87.10;;;;;;5053644;28;20420;-75
2021/05/12 00:37:45;;;;;;;17.23;10.50;;;14.50;87.10;;;;;;5054935;28;20036;-75
2021/05/12 00:40:13;;;;;;;16.60;9.65;;;14.50;87.20;;;;;;5054279;28;20466;-74
2021/05/12 00:42:39;;;;;;;16.27;9.20;;;14.50;87.20;;;;;;5054465;28;20380;-75
2021/05/12 00:45:07;;;;;;;14.63;9.50;;;14.50;87.10;;;;;;5054206;28;20048;-74
2021/05/12 00:47:33;;;;;;;15.88;9.15;;;14.50;87.00;;;;;;5054597;28;20457;-74
2021/05/12 00:50:00;;;;;;;18.27;9.30;;;14.50;87.00;;;;;;5054048;28;20029;-74
2021/05/12 00:52:26;;;;;;;14.77;9.00;;;14.50;86.90;;;;;;5055032;28;20029;-75
2021/05/12 00:54:53;;;;;;;16.05;8.73;;;14.50;86.90;;;;;;5054350;28;20063;-75
2021/05/12 00:57:19;;;;;;;13.23;7.70;;;14.50;86.90;;;;;;5054588;28;20024;-75
2021/05/12 00:59:46;;;;;;;14.98;8.30;;;14.50;87.00;;;;;;5053163;28;20067;-75
2021/05/12 01:02:13;;;;;;;13.38;7.70;;;14.40;87.00;;;;;;5052561;28;20359;-74
2021/05/12 01:04:39;;;;;;;18.20;9.05;;;14.40;87.10;;;;;;5054491;28;20465;-75
2021/05/12 01:07:06;;;;;;;15.25;8.32;;;14.50;87.10;;;;;;5052484;28;20108;-74
2021/05/12 01:09:32;;;;;;;14.40;8.15;;;14.40;87.00;;;;;;5054282;28;20033;-75
2021/05/12 01:11:58;;;;;;;16.13;8.43;;;14.40;86.90;;;;;;5052322;28;20457;-76
2021/05/12 01:14:25;;;;;;;15.93;8.73;;;14.40;87.00;;;;;;5054218;28;20523;-75
2021/05/12 01:16:51;;;;;;;12.63;7.65;;;14.40;87.00;;;;;;5054136;28;20063;-75
2021/05/12 01:19:17;;;;;;;13.85;7.47;;;14.40;87.00;;;;;;5053519;28;20072;-75
2021/05/12 01:21:43;;;;;;;13.05;7.00;;;14.40;86.90;;;;;;5054068;28;20456;-76
2021/05/12 01:24:09;;;;;;;14.30;8.18;;;14.40;86.80;;;;;;5053537;28;20096;-74
2021/05/12 01:26:35;;;;;;;13.63;7.68;;;14.40;86.80;;;;;;5054254;28;20025;-76
2021/05/12 01:29:00;;;;;;;12.43;6.97;;;14.30;86.80;;;;;;5053218;28;20025;-75
2021/05/12 01:31:30;;;;;;;15.80;7.28;;;14.30;86.80;;;;;;5053552;28;20126;-75
2021/05/12 01:33:56;;;;;;;11.45;7.00;;;14.30;86.70;;;;;;5053182;28;20029;-76
2021/05/12 01:36:21;;;;;;;13.98;7.78;;;14.30;86.60;;;;;;5054107;28;20075;-73
2021/05/12 01:38:49;;;;;;;12.18;7.03;;;14.30;86.50;;;;;;5053458;28;20033;-74
2021/05/12 01:41:16;;;;;;;13.35;7.30;;;14.30;86.40;;;;;;5053051;28;20032;-74
2021/05/12 01:43:42;;;;;;;14.07;7.63;;;14.30;86.50;;;;;;5053146;28;20362;-73
2021/05/12 01:46:09;;;;;;;11.13;6.95;;;14.30;86.50;;;;;;5053152;28;20021;-75
2021/05/12 01:48:35;;;;;;;11.27;7.30;;;14.20;86.50;;;;;;5052190;28;20073;-75
2021/05/12 01:51:02;;;;;;;15.00;7.38;;;14.20;86.50;;;;;;5052855;28;20078;-75
2021/05/12 01:53:28;;;;;;;12.65;7.20;;;14.20;86.50;;;;;;5053515;28;20025;-75
2021/05/12 01:55:54;;;;;;;13.55;7.07;;;14.20;86.40;;;;;;5053590;28;20031;-75
2021/05/12 01:58:20;;;;;;;14.25;7.30;;;14.20;86.20;;;;;;5052995;28;20492;-75
2021/05/12 02:00:48;;;;;;;10.48;5.65;;;14.10;85.90;;;;;;5053392;28;20520;-75
2021/05/12 02:03:14;;;;;;;13.18;6.78;;;14.10;85.90;;;;;;5052684;28;20025;-74
2021/05/12 02:05:42;;;;;;;11.02;6.22;;;14.00;85.90;;;;;;5053297;28;20109;-75
2021/05/12 02:08:10;;;;;;;10.02;6.20;;;14.00;85.80;;;;;;5051330;28;20087;-74
2021/05/12 02:10:37;;;;;;;12.20;5.72;;;14.10;85.80;;;;;;5052732;28;20036;-74
2021/05/12 02:13:03;;;;;;;9.77;5.35;;;14.00;85.60;;;;;;5051152;28;20043;-74
2021/05/12 02:15:29;;;;;;;10.85;5.78;;;14.00;85.60;;;;;;5053078;28;20112;-75
2021/05/12 02:17:55;;;;;;;9.30;5.07;;;14.00;85.60;;;;;;5051658;28;20103;-75
2021/05/12 02:20:30;;;;;;;12.13;6.38;;;14.00;85.60;;;;;;5067680;28;20057;-75
2021/05/12 02:22:57;;;;;;;12.45;6.00;;;14.00;85.50;;;;;;5053055;28;20013;-75
2021/05/12 02:25:23;;;;;;;12.98;6.80;;;13.90;85.40;;;;;;5067540;28;20077;-75
2021/05/12 02:27:49;;;;;;;13.73;7.63;;;13.90;85.50;;;;;;5052824;28;20024;-75
2021/05/12 02:30:15;;;;;;;11.85;6.50;;;13.90;85.60;;;;;;5050696;28;20511;-74
2021/05/12 02:32:41;;;;;;;12.98;7.00;;;13.90;85.50;;;;;;5052660;28;20123;-73
2021/05/12 02:35:09;;;;;;;16.50;6.80;;;13.90;85.50;;;;;;5050839;28;20140;-75
2021/05/12 02:37:35;;;;;;;13.20;7.60;;;13.90;85.40;;;;;;5052816;28;20032;-74
2021/05/12 02:40:02;;;;;;;12.90;7.75;;;13.90;85.40;;;;;;5052037;28;20029;-75
2021/05/12 02:42:27;;;;;;;14.98;7.25;;;13.90;85.30;;;;;;5052576;28;20029;-75
2021/05/12 02:44:53;;;;;;;14.38;8.40;;;13.90;85.30;;;;;;5051481;28;20077;-74
2021/05/12 02:47:21;;;;;;;13.05;7.43;;;13.90;85.20;;;;;;5051811;28;20032;-75
2021/05/12 02:49:47;;;;;;;14.45;7.50;;;13.90;85.10;;;;;;5052644;28;20059;-75
2021/05/12 02:52:13;;;;;;;13.75;7.80;;;13.90;85.00;;;;;;5051851;28;20477;-74
2021/05/12 02:54:39;;;;;;;11.85;7.03;;;13.90;85.00;;;;;;5051972;28;20099;-74
2021/05/12 02:57:05;;;;;;;14.73;8.13;;;13.80;85.00;;;;;;5051665;28;20021;-75
2021/05/12 02:59:30;;;;;;;12.75;7.47;;;13.80;84.80;;;;;;5052253;28;20381;-75
2021/05/12 03:01:56;;;;;;;13.15;7.15;;;13.80;84.90;;;;;;5051959;28;20079;-75
2021/05/12 03:04:22;;;;;;;11.75;6.55;;;13.80;84.90;;;;;;5051234;28;20602;-75
2021/05/12 03:06:48;;;;;;;14.95;7.57;;;13.80;84.80;;;;;;5051832;28;20071;-74
2021/05/12 03:09:14;;;;;;;12.00;6.70;;;13.80;84.60;;;;;;5051425;28;20036;-74
2021/05/12 03:11:40;;;;;;;10.85;6.57;;;13.80;84.70;;;;;;5051881;28;20021;-74
2021/05/12 03:14:08;;;;;;;13.55;7.47;;;13.80;84.70;;;;;;5037213;28;20464;-75
2021/05/12 03:16:34;;;;;;;12.43;6.45;;;13.80;84.70;;;;;;5027322;28;20014;-74
2021/05/12 03:19:00;;;;;;;14.20;7.63;;;13.80;84.70;;;;;;5012058;28;20102;-74
2021/05/12 03:21:26;;;;;;;12.63;7.43;;;13.80;84.70;;;;;;5011631;28;20065;-75
2021/05/12 03:23:52;;;;;;;14.40;7.05;;;13.80;84.60;;;;;;5012124;28;20030;-75
2021/05/12 03:26:18;;;;;;;13.80;7.43;;;13.70;84.60;;;;;;5026833;28;20037;-74
2021/05/12 03:28:44;;;;;;;13.45;7.80;;;13.80;84.50;;;;;;5027329;28;20371;-74
2021/05/12 03:31:11;;;;;;;14.20;6.47;;;13.70;84.50;;;;;;5011205;28;20037;-74
2021/05/12 03:33:37;;;;;;;16.92;8.15;;;13.80;84.60;;;;;;5027319;28;20018;-74
2021/05/12 03:36:05;;;;;;;16.33;8.15;;;13.70;84.60;;;;;;5012089;28;20108;-74
2021/05/12 03:38:30;;;;;;;17.30;8.02;;;13.70;84.70;;;;;;5012270;28;20033;-74
2021/05/12 03:40:56;;;;;;;14.15;7.65;;;13.70;84.80;;;;;;5027320;28;20029;-75
2021/05/12 03:43:22;;;;;;;17.27;8.27;;;13.70;84.80;;;;;;5011631;28;20421;-75
2021/05/12 03:45:47;;;;;;;15.02;8.00;;;13.70;84.80;;;;;;5027647;28;20080;-75
2021/05/12 03:48:13;;;;;;;15.00;8.10;;;13.60;84.80;;;;;;5022110;28;20109;-75
2021/05/12 03:50:39;;;;;;;16.27;8.45;;;13.60;84.90;;;;;;5029338;28;20029;-75
2021/05/12 03:53:05;;;;;;;13.45;8.45;;;13.60;84.90;;;;;;5031241;28;20014;-76
2021/05/12 03:55:31;;;;;;;18.30;9.20;;;13.50;85.00;;;;;;5031056;28;20022;-75
2021/05/12 03:57:56;;;;;;;16.55;8.63;;;13.50;84.90;;;;;;5030928;28;20513;-75
2021/05/12 04:00:23;;;;;;;16.65;8.65;;;13.50;84.90;;;;;;5030306;28;20075;-74
2021/05/12 04:02:49;;;;;;;23.40;9.85;;;13.50;85.00;;;;;;5029800;28;20449;-76
2021/05/12 04:05:15;;;;;;;15.43;9.68;;;13.50;85.10;;;;;;5026858;28;20045;-75
2021/05/12 04:07:41;;;;;;;20.67;10.20;;;13.40;85.20;;;;;;5034563;28;20026;-75
2021/05/12 04:10:08;;;;;;;16.75;9.82;;;13.40;85.20;;;;;;5033540;28;20025;-75
2021/05/12 04:12:34;;;;;;;17.45;8.48;;;13.40;85.30;;;;;;5034141;28;20025;-75
2021/05/12 04:15:00;;;;;;;14.75;8.32;;;13.40;85.30;;;;;;5034010;28;20477;-74
2021/05/12 04:17:26;;;;;;;14.82;8.68;;;13.40;85.30;;;;;;5034803;28;20026;-76
2021/05/12 04:19:53;;;;;;;14.00;8.20;;;13.40;85.10;;;;;;5035357;28;20033;-75
2021/05/12 04:22:19;;;;;;;16.98;9.00;;;13.40;85.00;;;;;;5034649;28;20067;-75
2021/05/12 04:24:45;;;;;;;16.40;9.57;;;13.40;85.00;;;;;;5033921;28;20029;-74
2021/05/12 04:27:11;;;;;;;17.38;9.43;;;13.40;85.00;;;;;;5034551;28;20024;-75
2021/05/12 04:29:37;;;;;;;16.25;8.52;;;13.40;84.90;;;;;;5033704;28;20029;-75
2021/05/12 04:32:06;;;;;;;13.60;7.78;;;13.40;84.90;;;;;;5034892;28;20058;-75
2021/05/12 04:34:32;;;;;;;17.90;8.38;;;13.40;84.90;;;;;;5031271;28;20025;-80
2021/05/12 04:36:58;;;;;;;19.50;8.45;;;13.40;84.90;;;;;;5032496;28;20113;-77
2021/05/12 04:39:24;;;;;;;13.15;8.20;;;13.40;85.00;;;;;;5031792;28;20025;-77
2021/05/12 04:41:50;;;;;;;14.52;8.00;;;13.40;84.80;;;;;;5032360;28;20108;-77
2021/05/12 04:44:15;;;;;;;16.83;9.13;;;13.40;84.80;;;;;;5030695;28;20021;-79
2021/05/12 04:46:43;;;;;;;14.48;8.07;;;13.40;84.80;;;;;;5030828;28;20025;-78
2021/05/12 04:49:10;;;;;;;13.52;7.38;;;13.30;84.80;;;;;;5030934;28;20029;-78
2021/05/12 04:51:36;;;;;;;14.75;7.47;;;13.30;84.90;;;;;;5031148;28;20120;-78
2021/05/12 04:54:03;;;;;;;17.15;7.75;;;13.30;84.80;;;;;;5032295;28;20109;-75
2021/05/12 04:56:29;;;;;;;16.17;7.80;;;13.30;84.80;;;;;;5033940;28;20080;-75
2021/05/12 04:58:54;;;;;;;19.48;7.88;;;13.30;84.80;;;;;;5034470;28;20026;-75
2021/05/12 05:01:20;;;;;;;13.23;7.65;;;13.30;84.80;;;;;;5033615;28;20025;-76
2021/05/12 05:03:46;;;;;;;14.35;8.23;;;13.30;84.80;;;;;;5034932;28;20378;-76
2021/05/12 05:06:11;;;;;;;14.77;6.32;;;13.40;84.90;;;;;;5033250;28;20026;-76
2021/05/12 05:08:38;;;;;;;12.23;7.55;;;13.40;84.80;;;;;;5034439;28;20025;-76
2021/05/12 05:11:04;;;;;;;12.65;7.75;;;13.40;84.70;;;;;;5032618;28;20059;-76
2021/05/12 05:13:29;;;;;;;13.25;7.15;;;13.40;84.50;;;;;;5033635;28;20450;-76
2021/05/12 05:15:55;;;;;;;14.02;7.82;;;13.40;84.50;;;;;;5033983;28;20026;-76
2021/05/12 05:18:21;;;;;;;17.98;8.57;;;13.40;84.70;;;;;;5033040;28;20096;-76
2021/05/12 05:20:47;;;;;;;13.05;7.55;;;13.30;84.60;;;;;;5033930;28;20132;-75
2021/05/12 05:23:13;;;;;;;13.23;7.43;;;13.30;84.70;;;;;;5033860;28;20096;-75
2021/05/12 05:25:39;;;;;;;14.32;7.95;;;13.40;84.70;;;;;;5034359;28;20026;-75
2021/05/12 05:28:04;;;;;;;14.68;7.22;;;13.40;84.80;;;;;;5032823;28;20119;-75
2021/05/12 05:30:30;;;;;;;13.20;7.78;;;13.40;84.80;;;;;;5033065;28;20116;-75
2021/05/12 05:33:02;;;;;;;16.63;8.38;;;13.40;84.70;;;;;;5033493;28;20056;-76
2021/05/12 05:35:28;;;;;;;16.38;8.63;;;13.40;84.80;;;;;;5032970;28;20388;-75
2021/05/12 05:37:53;;;;;;;15.10;8.10;;;13.40;84.70;;;;;;5033882;28;20040;-74
2021/05/12 05:40:19;;;;;;;13.40;7.35;;;13.30;84.70;;;;;;5032977;28;20445;-75
2021/05/12 05:42:45;;;;;;;17.65;8.63;;;13.30;84.70;;;;;;5032400;28;20026;-76
2021/05/12 05:45:11;;;;;;;16.80;8.27;;;13.40;84.70;;;;;;5032407;28;20018;-75
2021/05/12 05:47:37;;;;;;;16.40;9.07;;;13.40;84.70;;;;;;5031710;28;20032;-75
2021/05/12 05:50:07;;;;;;;19.30;8.43;;;13.40;85.20;;;;;;5033569;28;20083;-75
2021/05/12 05:52:32;;;;;;;18.38;8.25;;;13.40;84.60;;;;;;5032903;28;20100;-75
2021/05/12 05:55:00;;;;;;;16.13;8.93;;;13.40;84.50;;;;;;5033304;28;20133;-75
2021/05/12 05:57:27;;;;;;;11.40;7.45;;;13.40;84.50;;;;;;5032592;28;20428;-75
2021/05/12 05:59:52;;;;;;;15.77;9.75;;;13.50;84.50;;;;;;5032062;28;20501;-75
2021/05/12 06:02:18;;;;;;;19.00;9.88;;;13.50;84.50;;;;;;5032828;28;20025;-75
2021/05/12 06:04:43;;;;;;;17.95;8.95;;;13.40;84.60;;;;;;5033334;28;20025;-76
2021/05/12 06:07:09;;;;;;;16.90;9.10;;;13.40;84.50;;;;;;5032153;28;20365;-76
2021/05/12 06:09:35;;;;;;;22.45;10.38;;;13.50;84.50;;;;;;5032604;28;20617;-75
2021/05/12 06:12:00;;;;;;;17.23;9.50;;;13.50;84.60;;;;;;5033234;28;20029;-77
2021/05/12 06:14:26;;;;;;;18.65;9.68;;;13.50;84.40;;;;;;5032558;28;20454;-75
2021/05/12 06:16:52;;;;;;;19.10;9.38;;;13.50;84.40;;;;;;5031936;28;20025;-76
2021/05/12 06:19:17;;;;;;;18.92;9.43;;;13.50;84.40;;;;;;5032635;28;20033;-74
2021/05/12 06:21:43;;;;;;;17.05;9.05;;;13.50;84.40;;;;;;5033400;28;20026;-76
2021/05/12 06:24:09;;;;;;;17.27;9.98;;;13.50;84.50;;;;;;5033064;28;20365;-76
2021/05/12 06:26:39;;;;;;;18.73;8.50;;;13.60;84.50;;;;;;5031103;28;20095;-75
2021/05/12 06:29:05;;;;;;;16.40;9.05;;;13.60;84.40;;;;;;5032583;28;20053;-75
2021/05/12 06:31:31;;;;;;;18.83;9.55;;;13.60;84.30;;;;;;5031558;28;20489;-76
2021/05/12 06:33:59;;;;;;;12.73;7.95;;;13.60;84.40;;;;;;5033112;28;20022;-75
2021/05/12 06:36:24;;;;;;;18.60;8.90;;;13.70;84.20;;;;;;5032204;28;20104;-75
2021/05/12 06:38:51;;;;;;;17.88;7.88;;;13.70;84.10;;;;;;5031654;28;20029;-76
2021/05/12 06:41:16;;;;;;;19.65;7.68;;;13.70;84.00;;;;;;5032745;28;20033;-75
2021/05/12 06:43:42;;;;;;;14.63;8.05;;;13.70;83.90;;;;;;5032108;28;20022;-75
2021/05/12 06:46:07;;;;;;;11.73;7.15;;;13.80;83.80;;;;;;5032329;28;20469;-75
2021/05/12 06:48:33;;;;;;;12.27;6.57;;;13.80;83.60;;;;;;5031959;28;20029;-75
2021/05/12 06:50:59;;;;;;;10.85;5.03;;;13.80;83.10;;;;;;5032239;28;20045;-76
2021/05/12 06:53:29;;;;;;;11.20;6.07;;;13.90;82.80;;;;;;5031676;28;20029;-75
2021/05/12 06:55:56;;;;;;;14.70;5.60;;;14.00;82.30;;;;;;5031257;28;20112;-76
2021/05/12 06:58:22;;;;;;;12.30;5.82;;;14.00;81.70;;;;;;5030449;28;20264;-74
2021/05/12 07:00:50;;;;;;;11.38;4.47;;;14.00;81.40;;;;;;5030740;28;20029;-76
2021/05/12 07:03:16;;;;;;;9.20;4.30;;;14.00;81.10;;;;;;5032168;28;20021;-75
2021/05/12 07:05:42;;;;;;;10.23;4.65;;;14.00;80.60;;;;;;5030398;28;20017;-76
2021/05/12 07:08:08;;;;;;;8.93;4.20;;;14.10;80.30;;;;;;5030769;28;20053;-76
2021/05/12 07:10:34;;;;;;;12.30;4.50;;;14.10;80.10;;;;;;5030228;28;20115;-76
2021/05/12 07:13:00;;;;;;;8.60;4.53;;;14.20;79.70;;;;;;5030870;28;20027;-75
2021/05/12 07:15:26;;;;;;;7.90;3.92;;;14.20;79.60;;;;;;5031286;28;20096;-76
2021/05/12 07:17:51;;;;;;;12.07;4.45;;;14.20;79.60;;;;;;5031742;28;20386;-75
2021/05/12 07:20:20;;;;;;;12.38;3.63;;;14.20;78.70;;;;;;5032034;28;20082;-75
2021/05/12 07:22:46;;;;;;;7.63;3.80;;;14.20;78.50;;;;;;5031486;28;20355;-75
2021/05/12 07:25:12;;;;;;;9.45;3.58;;;14.30;78.70;;;;;;5030345;28;20048;-75
2021/05/12 07:27:38;;;;;;;7.00;3.80;;;14.30;78.50;;;;;;5030032;28;20025;-77
2021/05/12 07:30:06;;;;;;;8.60;3.45;;;14.40;78.10;;;;;;5031950;28;20033;-75
2021/05/12 07:32:32;;;;;;;9.85;3.83;;;14.40;77.80;;;;;;5030861;28;20049;-75
2021/05/12 07:34:57;;;;;;;10.95;4.18;;;14.40;77.60;;;;;;5032004;28;20112;-75
2021/05/12 07:37:24;;;;;;;9.77;4.40;;;14.50;77.50;;;;;;5031043;28;20108;-75
2021/05/12 07:39:51;;;;;;;7.40;4.07;;;14.50;77.40;;;;;;5030603;28;20074;-75
2021/05/12 07:42:18;;;;;;;8.20;3.70;;;14.50;77.40;;;;;;5031387;28;20072;-75
2021/05/12 07:44:46;;;;;;;9.15;4.40;;;14.60;77.40;;;;;;5031107;28;20021;-76
2021/05/12 07:47:11;;;;;;;10.20;3.58;;;14.60;77.40;;;;;;5031808;28;20188;-77
2021/05/12 07:49:38;;;;;;;9.52;4.00;;;14.70;77.20;;;;;;5029905;28;20124;-76
2021/05/12 07:52:05;;;;;;;5.90;2.83;;;14.70;77.00;;;;;;5031493;28;20022;-76
2021/05/12 07:54:31;;;;;;;8.88;3.75;;;14.70;77.00;;;;;;5030993;28;20049;-76
2021/05/12 07:56:57;;;;;;;6.38;2.90;;;14.70;76.50;;;;;;5031538;28;20455;-75
2021/05/12 07:59:24;;;;;;;11.20;3.10;;;14.70;76.40;;;;;;5031338;28;20033;-76
2021/05/12 08:01:50;;;;;;;11.02;3.30;;;14.70;76.30;;;;;;5031726;28;20039;-76
2021/05/12 08:04:15;;;;;;;11.20;3.40;;;14.70;75.80;;;;;;5031520;28;20056;-75
2021/05/12 08:06:41;;;;;;;6.45;3.97;;;14.70;75.90;;;;;;5030608;28;20032;-75
2021/05/12 08:09:08;;;;;;;12.43;3.17;;;14.80;75.90;;;;;;5031312;28;20025;-75
2021/05/12 08:11:34;;;;;;;6.53;2.85;;;14.80;75.90;;;;;;5030864;28;20021;-75
2021/05/12 08:14:00;;;;;;;11.55;3.03;;;14.80;75.70;;;;;;5031685;28;20524;-76
2021/05/12 08:16:26;;;;;;;4.38;2.38;;;14.90;75.90;;;;;;5030863;28;20068;-76
2021/05/12 08:18:51;;;;;;;10.70;3.45;;;14.90;75.70;;;;;;5030050;28;20025;-76
2021/05/12 08:21:18;;;;;;;9.88;3.85;;;14.90;75.10;;;;;;5030045;28;20030;-76
2021/05/12 08:23:44;;;;;;;8.68;3.55;;;14.90;75.80;;;;;;5030857;28;20053;-75
2021/05/12 08:26:10;;;;;;;8.85;2.80;;;14.90;75.30;;;;;;5031515;28;20064;-75
2021/05/12 08:28:39;;;;;;;9.88;2.75;;;15.00;75.60;;;;;;5030593;28;20120;-75
2021/05/12 08:31:06;;;;;;;3.03;1.30;;;15.00;74.90;;;;;;5031064;28;20438;-74
2021/05/12 08:33:31;;;;;;;5.95;1.92;;;15.10;73.80;;;;;;5030811;28;20056;-76
2021/05/12 08:35:57;;;;;;;3.88;1.58;;;15.10;73.60;;;;;;5030161;28;20376;-75
2021/05/12 08:38:25;;;;;;;5.30;2.28;;;15.10;72.90;;;;;;5029974;28;20014;-75
2021/05/12 08:40:53;;;;;;;6.10;1.77;;;15.20;73.00;;;;;;5029345;28;20033;-75
2021/05/12 08:43:19;;;;;;;4.25;1.40;;;15.20;72.80;;;;;;5031219;28;20025;-75
2021/05/12 08:45:46;;;;;;;4.47;1.65;;;15.20;72.10;;;;;;5030518;28;20033;-75
2021/05/12 08:48:17;;;;;;;5.65;1.80;;;15.20;71.90;;;;;;5031144;28;20028;-75
2021/05/12 08:50:46;;;;;;;5.07;1.90;;;15.30;71.90;;;;;;5030374;28;20036;-76
2021/05/12 08:53:12;;;;;;;6.38;1.88;;;15.30;72.00;;;;;;5031688;28;20036;-76
2021/05/12 08:55:38;;;;;;;5.07;1.80;;;15.30;71.80;;;;;;5033654;28;20026;-75
2021/05/12 08:58:04;;;;;;;6.95;1.73;;;15.40;71.80;;;;;;5034657;28;20052;-75
2021/05/12 09:00:30;;;;;;;10.85;3.13;;;15.40;71.70;;;;;;5032493;28;20098;-75
2021/05/12 09:02:58;;;;;;;6.15;2.45;;;15.40;71.40;;;;;;5034289;28;20461;-76
2021/05/12 09:05:25;;;;;;;5.95;1.98;;;15.50;71.30;;;;;;5034599;28;20021;-75
2021/05/12 09:07:51;;;;;;;3.58;2.15;;;15.50;71.30;;;;;;5033693;28;20018;-75
2021/05/12 09:10:17;;;;;;;4.70;1.88;;;15.60;70.70;;;;;;5034588;28;20369;-75
2021/05/12 09:12:56;;;;;;;5.60;1.80;;;15.60;70.20;;;;;;5034055;28;20044;-75
2021/05/12 09:15:24;;;;;;;6.10;1.75;;;15.60;69.70;;;;;;5032787;28;20041;-76
2021/05/12 09:17:51;;;;;;;6.25;1.80;;;15.60;69.20;;;;;;5033698;28;20199;-77
2021/05/12 09:20:20;;;;;;;6.45;2.20;;;15.70;69.60;;;;;;5034135;28;20456;-76
2021/05/12 09:23:00;;;;;;;5.70;2.10;;;15.70;67.90;;;;;;5032241;28;20072;-75
2021/05/12 09:25:30;;;;;;;5.10;2.10;;;15.70;67.90;;;;;;5034209;28;20028;-76
2021/05/12 09:28:09;;;;;;;6.28;2.35;;;15.70;67.60;;;;;;5034235;28;20500;-76
2021/05/12 09:30:38;;;;;;;8.30;2.65;;;15.80;67.70;;;;;;5031945;28;20029;-75
2021/05/12 09:33:09;;;;;;;3.40;1.67;;;15.80;67.30;;;;;;5032254;28;20049;-75
2021/05/12 09:35:45;;;;;;;3.80;1.48;;;15.80;67.40;;;;;;5031963;28;20403;-75
2021/05/12 09:38:22;;;;;;;3.38;1.90;;;15.80;67.10;;;;;;5033999;28;20022;-75
2021/05/12 09:41:12;;;;;;;3.70;1.88;;;15.90;66.30;;;;;;5033239;28;20565;-77
2021/05/12 09:43:45;;;;;;;4.63;1.88;;;15.90;65.60;;;;;;5033226;28;20044;-76
2021/05/12 09:46:32;;;;;;;6.55;2.10;;;15.90;66.00;;;;;;5032450;28;20021;-75
2021/05/12 09:49:00;;;;;;;4.72;1.83;;;16.00;66.30;;;;;;5033827;28;20611;-76
2021/05/12 09:51:31;;;;;;;5.50;1.60;;;16.00;65.70;;;;;;5033668;28;20065;-76
2021/05/12 09:54:18;;;;;;;5.35;1.95;;;16.10;65.00;;;;;;5033187;28;20138;-75
2021/05/12 09:56:54;;;;;;;6.93;2.00;;;16.20;65.30;;;;;;5033640;28;20484;-76
2021/05/12 09:59:25;;;;;;;5.45;1.88;;;16.10;65.50;;;;;;5033938;28;20476;-76
2021/05/12 10:01:54;;;;;;;4.68;1.67;;;16.20;65.50;;;;;;5031869;28;20021;-76
2021/05/12 10:04:49;;;;;;;4.35;1.60;;;16.20;65.50;;;;;;5033479;28;20053;-76
2021/05/12 10:07:25;;;;;;;3.35;1.27;;;16.20;65.80;;;;;;5032354;28;20022;-76
2021/05/12 10:09:53;;;;;;;4.28;1.60;;;16.20;66.00;;;;;;5032785;28;20044;-76
2021/05/12 10:12:24;;;;;;;5.72;1.40;;;16.30;65.70;;;;;;5033521;28;20025;-76
2021/05/12 10:14:57;;;;;;;4.95;1.33;;;16.40;64.50;;;;;;5032614;28;20489;-76
2021/05/12 10:17:25;;;;;;;4.50;1.10;;;16.40;63.60;;;;;;5033043;28;20057;-77
2021/05/12 10:19:51;;;;;;;2.70;1.00;;;16.50;63.60;;;;;;5031228;28;20120;-75
2021/05/12 10:22:18;;;;;;;2.90;1.10;;;16.50;63.40;;;;;;5033115;28;20029;-75
2021/05/12 10:24:46;;;;;;;6.28;2.00;;;16.40;63.60;;;;;;5032368;28;20025;-76
2021/05/12 10:27:25;;;;;;;5.50;1.30;;;16.50;63.20;;;;;;5032927;28;20056;-76
2021/05/12 10:29:53;;;;;;;3.95;0.85;;;16.50;62.70;;;;;;5032267;28;20029;-76
2021/05/12 10:32:26;;;;;;;2.83;0.95;;;16.60;61.90;;;;;;5032869;28;20371;-75
2021/05/12 10:35:01;;;;;;;5.03;1.27;;;16.70;61.00;;;;;;5032352;28;20021;-76
2021/05/12 10:37:29;;;;;;;3.63;1.38;;;16.90;61.40;;;;;;5033095;28;20057;-76
2021/05/12 10:40:05;;;;;;;7.38;1.17;;;16.90;61.70;;;;;;5032266;28;20435;-76
2021/05/12 10:48:32;;;;;;;7.40;1.98;;;16.90;62.30;;;;;;5032516;28;20054;-75
2021/05/12 10:50:59;;;;;;;4.22;1.10;;;17.00;62.60;;;;;;5030597;28;20083;-75
2021/05/12 10:53:43;;;;;;;4.82;0.93;;;16.90;62.60;;;;;;5032583;28;20029;-76
2021/05/12 10:56:09;;;;;;;6.43;1.20;;;16.90;62.50;;;;;;5032575;28;20033;-76
2021/05/12 10:58:46;;;;;;;4.97;1.40;;;16.90;62.80;;;;;;5032487;28;20026;-76
2021/05/12 11:01:12;;;;;;;5.85;1.30;;;17.00;62.00;;;;;;5032465;28;20071;-75
2021/05/12 11:06:16;;;;;;;5.13;1.05;;;17.00;61.60;;;;;;5032204;28;20115;-75
2021/05/12 11:09:06;;;;;;;4.30;1.27;;;17.10;61.90;;;;;;5031371;28;20100;-75
2021/05/12 11:11:33;;;;;;;4.72;1.83;;;17.30;61.30;;;;;;5032034;28;20037;-76
2021/05/12 11:14:25;;;;;;;2.17;1.00;;;17.40;61.30;;;;;;5031264;28;20083;-76
2021/05/12 11:17:14;;;;;;;2.78;1.33;;;17.50;60.50;;;;;;5029870;28;20325;-76
2021/05/12 11:25:08;;;;;;;1.45;0.93;;;17.80;60.00;;;;;;5031090;28;20037;-75
2021/05/12 11:32:35;;;;;;;3.63;1.52;;;18.20;58.70;;;;;;5031413;28;20085;-76
2021/05/12 11:35:08;;;;;;;4.45;1.50;;;18.30;58.20;;;;;;5031291;28;20033;-77
2021/05/12 11:37:39;;;;;;;5.10;1.27;;;18.40;58.20;;;;;;5031905;28;20040;-76
2021/05/12 11:40:06;;;;;;;5.05;1.17;;;18.40;58.20;;;;;;5031404;28;20052;-76
2021/05/12 11:42:34;;;;;;;2.67;1.00;;;18.50;58.50;;;;;;5031781;28;20044;-75
2021/05/12 11:45:13;;;;;;;3.03;0.80;;;18.50;58.70;;;;;;5029890;28;20025;-75
2021/05/12 11:47:41;;;;;;;1.70;0.55;;;18.60;57.10;;;;;;5031927;28;20014;-76
2021/05/12 11:50:22;;;;;;;2.13;1.00;;;18.70;56.40;;;;;;5030322;28;20080;-76
2021/05/12 11:52:48;;;;;;;3.10;0.88;;;18.70;56.00;;;;;;5031136;28;20025;-75
2021/05/12 11:55:14;;;;;;;3.03;0.98;;;18.70;55.90;;;;;;5031754;28;20521;-76
2021/05/12 11:57:39;;;;;;;1.42;0.70;;;18.70;55.00;;;;;;5030502;28;20022;-76
2021/05/12 12:00:09;;;;;;;2.33;0.93;;;18.70;55.10;;;;;;5031075;28;20026;-77
2021/05/12 12:02:37;;;;;;;1.10;0.63;;;18.90;54.90;;;;;;5031678;28;20028;-76
2021/05/12 12:05:05;;;;;;;3.83;1.00;;;19.00;54.90;;;;;;5031111;28;20163;-76
2021/05/12 12:07:34;;;;;;;10.15;1.95;;;19.10;54.20;;;;;;5031635;28;20125;-76
2021/05/12 12:10:05;;;;;;;2.05;0.85;;;19.30;54.50;;;;;;5029311;28;20442;-75
2021/05/12 12:12:32;;;;;;;5.00;1.35;;;19.60;54.40;;;;;;5031572;28;20021;-76
2021/05/12 12:15:11;;;;;;;3.38;1.00;;;19.70;53.50;;;;;;5030890;28;20093;-75
2021/05/12 12:17:37;;;;;;;4.50;1.00;;;19.80;52.60;;;;;;5030239;28;20443;-75
2021/05/12 12:20:08;;;;;;;4.78;1.30;;;19.90;53.10;;;;;;5030615;28;20033;-76
2021/05/12 12:22:34;;;;;;;2.42;0.77;;;20.00;53.40;;;;;;5030188;28;20033;-76
2021/05/12 12:25:14;;;;;;;5.95;1.50;;;20.20;51.80;;;;;;5030923;28;20159;-76
2021/05/12 12:27:40;;;;;;;3.05;1.17;;;20.30;50.90;;;;;;5031447;28;20526;-76
2021/05/12 12:30:07;;;;;;;3.40;1.27;;;20.10;51.30;;;;;;5034516;28;20113;-76
2021/05/12 12:32:32;;;;;;;4.47;1.52;;;20.00;52.20;;;;;;5035140;28;20094;-75
2021/05/12 12:35:01;;;;;;;4.13;1.17;;;20.00;52.60;;;;;;5034491;28;20104;-76
2021/05/12 12:37:31;;;;;;;4.35;1.27;;;20.10;52.70;;;;;;5035441;28;20032;-76
2021/05/12 12:40:08;;;;;;;3.35;1.10;;;20.30;52.10;;;;;;5034060;28;20378;-76
2021/05/12 12:42:43;;;;;;;5.07;1.10;;;20.40;51.50;;;;;;5034812;28;20060;-76
2021/05/12 12:45:20;;;;;;;3.45;1.25;;;20.30;51.10;;;;;;5034321;28;20058;-77
2021/05/12 12:47:57;;;;;;;2.92;1.08;;;20.10;50.60;;;;;;5034179;28;20026;-76
2021/05/12 12:50:24;;;;;;;6.07;1.20;;;20.00;51.60;;;;;;5034506;28;20527;-76
2021/05/12 12:52:50;;;;;;;3.83;1.00;;;20.10;51.60;;;;;;5034111;28;20066;-77
2021/05/12 12:55:36;;;;;;;5.70;2.00;;;20.40;50.80;;;;;;5033127;28;20026;-76
2021/05/12 12:58:06;;;;;;;3.28;1.08;;;20.60;50.20;;;;;;5033828;28;20030;-76
2021/05/12 13:00:40;;;;;;;2.03;1.00;;;20.90;49.90;;;;;;5034982;28;20511;-76
2021/05/12 13:03:08;;;;;;;3.05;1.13;;;21.10;49.70;;;;;;5033667;28;20025;-76